sensor_id;sensor_type;location;lat;lon;timestamp;P1;durP1;ratioP1;P2;durP2;ratioP2
11854;SDS011;5987;53.140;8.904;2022-09-01T00:01:10;1.60;;;0.80;;
11854;SDS011;5987;53.140;8.904;2022-09-01T00:04:17;0.93;;;0.90;;
11854;SDS011;5987;53.140;8.904;2022-09-01T00:07:24;1.80;;;1.03;;
11854;SDS011;5987;53.140;8.904;2022-09-01T00:10:30;1.10;;;1.00;;
11854;SDS011;5987;53.140;8.904;2022-09-01T00:13:36;3.93;;;1.60;;
11854;SDS011;5987;53.140;8.904;2022-09-01T00:16:40;1.67;;;1.00;;
11854;SDS011;5987;53.140;8.904;2022-09-01T00:19:44;1.20;;;1.00;;
11854;SDS011;5987;53.140;8.904;2022-09-01T00:22:47;1.93;;;1.10;;
11854;SDS011;5987;53.140;8.904;2022-09-01T00:25:52;2.00;;;1.03;;
11854;SDS011;5987;53.140;8.904;2022-09-01T00:28:57;2.00;;;1.20;;
11854;SDS011;5987;53.140;8.904;2022-09-01T00:32:01;2.63;;;1.40;;
11854;SDS011;5987;53.140;8.904;2022-09-01T00:35:06;0.87;;;0.87;;
11854;SDS011;5987;53.140;8.904;2022-09-01T00:38:10;1.27;;;1.17;;
11854;SDS011;5987;53.140;8.904;2022-09-01T00:41:14;1.70;;;1.10;;
11854;SDS011;5987;53.140;8.904;2022-09-01T00:44:22;2.73;;;1.77;;
11854;SDS011;5987;53.140;8.904;2022-09-01T00:47:31;1.17;;;1.00;;
11854;SDS011;5987;53.140;8.904;2022-09-01T00:50:36;1.77;;;1.10;;
11854;SDS011;5987;53.140;8.904;2022-09-01T00:53:40;1.50;;;1.30;;
11854;SDS011;5987;53.140;8.904;2022-09-01T00:56:47;1.60;;;1.47;;
11854;SDS011;5987;53.140;8.904;2022-09-01T01:00:01;2.70;;;1.00;;
11854;SDS011;5987;53.140;8.904;2022-09-01T01:03:12;1.43;;;1.13;;
11854;SDS011;5987;53.140;8.904;2022-09-01T01:06:16;2.90;;;1.30;;
11854;SDS011;5987;53.140;8.904;2022-09-01T01:09:33;0.90;;;0.90;;
11854;SDS011;5987;53.140;8.904;2022-09-01T01:12:43;3.67;;;1.33;;
11854;SDS011;5987;53.140;8.904;2022-09-01T01:15:48;1.77;;;1.10;;
11854;SDS011;5987;53.140;8.904;2022-09-01T01:18:52;1.40;;;1.27;;
11854;SDS011;5987;53.140;8.904;2022-09-01T01:21:59;1.63;;;1.50;;
11854;SDS011;5987;53.140;8.904;2022-09-01T01:25:22;2.10;;;1.10;;
11854;SDS011;5987;53.140;8.904;2022-09-01T01:28:27;2.60;;;1.27;;
11854;SDS011;5987;53.140;8.904;2022-09-01T01:31:33;1.37;;;1.17;;
11854;SDS011;5987;53.140;8.904;2022-09-01T01:34:38;1.30;;;1.13;;
11854;SDS011;5987;53.140;8.904;2022-09-01T01:37:48;2.17;;;1.37;;
11854;SDS011;5987;53.140;8.904;2022-09-01T01:40:54;2.43;;;1.20;;
11854;SDS011;5987;53.140;8.904;2022-09-01T01:43:58;1.60;;;1.17;;
11854;SDS011;5987;53.140;8.904;2022-09-01T01:47:06;2.20;;;1.43;;
11854;SDS011;5987;53.140;8.904;2022-09-01T01:50:14;2.40;;;1.07;;
11854;SDS011;5987;53.140;8.904;2022-09-01T01:53:18;1.30;;;1.20;;
11854;SDS011;5987;53.140;8.904;2022-09-01T01:56:24;2.03;;;1.10;;
11854;SDS011;5987;53.140;8.904;2022-09-01T01:59:28;1.43;;;1.00;;
11854;SDS011;5987;53.140;8.904;2022-09-01T02:02:34;1.97;;;1.10;;
11854;SDS011;5987;53.140;8.904;2022-09-01T02:05:39;1.30;;;1.20;;
11854;SDS011;5987;53.140;8.904;2022-09-01T02:08:42;1.47;;;1.33;;
11854;SDS011;5987;53.140;8.904;2022-09-01T02:11:47;2.30;;;1.33;;
11854;SDS011;5987;53.140;8.904;2022-09-01T02:14:57;1.40;;;1.30;;
11854;SDS011;5987;53.140;8.904;2022-09-01T02:18:03;1.83;;;1.60;;
11854;SDS011;5987;53.140;8.904;2022-09-01T02:21:08;1.50;;;1.27;;
11854;SDS011;5987;53.140;8.904;2022-09-01T02:24:19;1.73;;;1.50;;
11854;SDS011;5987;53.140;8.904;2022-09-01T02:27:25;1.07;;;1.07;;
11854;SDS011;5987;53.140;8.904;2022-09-01T02:30:29;2.63;;;1.33;;
11854;SDS011;5987;53.140;8.904;2022-09-01T02:33:34;1.97;;;1.10;;
11854;SDS011;5987;53.140;8.904;2022-09-01T02:36:39;1.93;;;1.60;;
11854;SDS011;5987;53.140;8.904;2022-09-01T02:39:48;1.50;;;1.40;;
11854;SDS011;5987;53.140;8.904;2022-09-01T02:42:53;1.43;;;1.30;;
11854;SDS011;5987;53.140;8.904;2022-09-01T02:45:57;2.80;;;1.40;;
11854;SDS011;5987;53.140;8.904;2022-09-01T02:49:03;4.90;;;1.73;;
11854;SDS011;5987;53.140;8.904;2022-09-01T02:52:09;1.70;;;1.60;;
11854;SDS011;5987;53.140;8.904;2022-09-01T02:55:16;1.33;;;1.23;;
11854;SDS011;5987;53.140;8.904;2022-09-01T02:58:24;1.60;;;1.50;;
11854;SDS011;5987;53.140;8.904;2022-09-01T03:01:29;1.50;;;1.40;;
11854;SDS011;5987;53.140;8.904;2022-09-01T03:04:34;2.57;;;1.50;;
11854;SDS011;5987;53.140;8.904;2022-09-01T03:07:39;2.30;;;1.70;;
11854;SDS011;5987;53.140;8.904;2022-09-01T03:10:43;2.23;;;1.60;;
11854;SDS011;5987;53.140;8.904;2022-09-01T03:13:49;2.23;;;1.80;;
11854;SDS011;5987;53.140;8.904;2022-09-01T03:16:54;1.93;;;1.50;;
11854;SDS011;5987;53.140;8.904;2022-09-01T03:19:58;1.30;;;1.20;;
11854;SDS011;5987;53.140;8.904;2022-09-01T03:23:02;2.33;;;1.97;;
11854;SDS011;5987;53.140;8.904;2022-09-01T03:26:09;2.23;;;1.80;;
11854;SDS011;5987;53.140;8.904;2022-09-01T03:29:15;2.67;;;1.90;;
11854;SDS011;5987;53.140;8.904;2022-09-01T03:32:19;1.83;;;1.67;;
11854;SDS011;5987;53.140;8.904;2022-09-01T03:35:22;2.77;;;2.00;;
11854;SDS011;5987;53.140;8.904;2022-09-01T03:38:28;2.07;;;1.90;;
11854;SDS011;5987;53.140;8.904;2022-09-01T03:41:32;1.77;;;1.67;;
11854;SDS011;5987;53.140;8.904;2022-09-01T03:44:39;2.53;;;2.10;;
11854;SDS011;5987;53.140;8.904;2022-09-01T03:47:48;2.37;;;1.83;;
11854;SDS011;5987;53.140;8.904;2022-09-01T03:50:51;2.33;;;2.13;;
11854;SDS011;5987;53.140;8.904;2022-09-01T03:53:55;3.10;;;1.70;;
11854;SDS011;5987;53.140;8.904;2022-09-01T03:57:00;3.17;;;2.17;;
11854;SDS011;5987;53.140;8.904;2022-09-01T04:00:08;2.50;;;1.83;;
11854;SDS011;5987;53.140;8.904;2022-09-01T04:03:21;2.10;;;1.90;;
11854;SDS011;5987;53.140;8.904;2022-09-01T04:06:29;2.87;;;2.00;;
11854;SDS011;5987;53.140;8.904;2022-09-01T04:09:33;2.17;;;1.97;;
11854;SDS011;5987;53.140;8.904;2022-09-01T04:12:37;2.60;;;2.00;;
11854;SDS011;5987;53.140;8.904;2022-09-01T04:15:42;3.20;;;2.10;;
11854;SDS011;5987;53.140;8.904;2022-09-01T04:18:45;3.60;;;2.30;;
11854;SDS011;5987;53.140;8.904;2022-09-01T04:21:52;2.63;;;2.23;;
11854;SDS011;5987;53.140;8.904;2022-09-01T04:24:59;4.27;;;2.40;;
11854;SDS011;5987;53.140;8.904;2022-09-01T04:28:03;3.13;;;2.30;;
11854;SDS011;5987;53.140;8.904;2022-09-01T04:31:15;2.87;;;2.30;;
11854;SDS011;5987;53.140;8.904;2022-09-01T04:34:21;2.33;;;2.10;;
11854;SDS011;5987;53.140;8.904;2022-09-01T04:37:26;2.20;;;2.10;;
11854;SDS011;5987;53.140;8.904;2022-09-01T04:40:30;2.60;;;2.40;;
11854;SDS011;5987;53.140;8.904;2022-09-01T04:43:34;2.53;;;2.33;;
11854;SDS011;5987;53.140;8.904;2022-09-01T04:46:40;2.43;;;2.17;;
11854;SDS011;5987;53.140;8.904;2022-09-01T04:49:46;3.07;;;2.20;;
11854;SDS011;5987;53.140;8.904;2022-09-01T04:52:51;2.57;;;2.13;;
11854;SDS011;5987;53.140;8.904;2022-09-01T04:56:14;2.80;;;2.00;;
11854;SDS011;5987;53.140;8.904;2022-09-01T04:59:20;2.30;;;2.10;;
11854;SDS011;5987;53.140;8.904;2022-09-01T05:02:29;3.60;;;2.23;;
11854;SDS011;5987;53.140;8.904;2022-09-01T05:05:35;2.67;;;2.17;;
11854;SDS011;5987;53.140;8.904;2022-09-01T05:08:43;2.77;;;2.20;;
11854;SDS011;5987;53.140;8.904;2022-09-01T05:11:48;2.93;;;2.40;;
11854;SDS011;5987;53.140;8.904;2022-09-01T05:14:51;4.20;;;2.50;;
11854;SDS011;5987;53.140;8.904;2022-09-01T05:17:57;3.40;;;2.83;;
11854;SDS011;5987;53.140;8.904;2022-09-01T05:21:10;2.63;;;2.30;;
11854;SDS011;5987;53.140;8.904;2022-09-01T05:24:16;2.67;;;2.47;;
11854;SDS011;5987;53.140;8.904;2022-09-01T05:27:22;2.43;;;2.20;;
11854;SDS011;5987;53.140;8.904;2022-09-01T05:30:28;2.53;;;2.30;;
11854;SDS011;5987;53.140;8.904;2022-09-01T05:33:34;2.50;;;2.27;;
11854;SDS011;5987;53.140;8.904;2022-09-01T05:36:43;2.73;;;2.37;;
11854;SDS011;5987;53.140;8.904;2022-09-01T05:39:51;3.83;;;2.30;;
11854;SDS011;5987;53.140;8.904;2022-09-01T05:42:55;2.30;;;2.10;;
11854;SDS011;5987;53.140;8.904;2022-09-01T05:45:59;2.50;;;2.30;;
11854;SDS011;5987;53.140;8.904;2022-09-01T05:49:10;2.40;;;2.20;;
11854;SDS011;5987;53.140;8.904;2022-09-01T05:52:17;2.37;;;2.17;;
11854;SDS011;5987;53.140;8.904;2022-09-01T05:55:26;2.30;;;2.10;;
11854;SDS011;5987;53.140;8.904;2022-09-01T05:58:35;2.50;;;2.07;;
11854;SDS011;5987;53.140;8.904;2022-09-01T06:02:00;2.73;;;2.00;;
11854;SDS011;5987;53.140;8.904;2022-09-01T06:05:06;3.57;;;2.27;;
11854;SDS011;5987;53.140;8.904;2022-09-01T06:08:12;2.57;;;2.37;;
11854;SDS011;5987;53.140;8.904;2022-09-01T06:11:18;1.77;;;1.67;;
11854;SDS011;5987;53.140;8.904;2022-09-01T06:14:25;3.57;;;2.13;;
11854;SDS011;5987;53.140;8.904;2022-09-01T06:17:29;2.50;;;2.07;;
11854;SDS011;5987;53.140;8.904;2022-09-01T06:20:39;3.43;;;2.00;;
11854;SDS011;5987;53.140;8.904;2022-09-01T06:23:44;2.83;;;1.90;;
11854;SDS011;5987;53.140;8.904;2022-09-01T06:26:49;2.97;;;1.90;;
11854;SDS011;5987;53.140;8.904;2022-09-01T06:29:52;3.43;;;1.80;;
11854;SDS011;5987;53.140;8.904;2022-09-01T06:32:56;2.77;;;1.67;;
11854;SDS011;5987;53.140;8.904;2022-09-01T06:36:04;3.20;;;1.93;;
11854;SDS011;5987;53.140;8.904;2022-09-01T06:39:09;4.27;;;1.70;;
11854;SDS011;5987;53.140;8.904;2022-09-01T06:42:20;1.40;;;1.30;;
11854;SDS011;5987;53.140;8.904;2022-09-01T06:45:25;2.73;;;1.57;;
11854;SDS011;5987;53.140;8.904;2022-09-01T06:48:28;3.33;;;1.53;;
11854;SDS011;5987;53.140;8.904;2022-09-01T06:51:33;1.50;;;1.40;;
11854;SDS011;5987;53.140;8.904;2022-09-01T06:54:37;1.70;;;1.37;;
11854;SDS011;5987;53.140;8.904;2022-09-01T06:57:44;4.30;;;1.50;;
11854;SDS011;5987;53.140;8.904;2022-09-01T07:01:07;2.43;;;1.30;;
11854;SDS011;5987;53.140;8.904;2022-09-01T07:04:17;1.70;;;1.50;;
11854;SDS011;5987;53.140;8.904;2022-09-01T07:07:27;2.90;;;1.40;;
11854;SDS011;5987;53.140;8.904;2022-09-01T07:10:54;2.03;;;1.37;;
11854;SDS011;5987;53.140;8.904;2022-09-01T07:14:19;1.63;;;1.20;;
11854;SDS011;5987;53.140;8.904;2022-09-01T07:17:23;1.40;;;1.27;;
11854;SDS011;5987;53.140;8.904;2022-09-01T07:20:27;1.30;;;1.20;;
11854;SDS011;5987;53.140;8.904;2022-09-01T07:23:58;1.50;;;1.10;;
11854;SDS011;5987;53.140;8.904;2022-09-01T07:27:11;3.87;;;1.60;;
11854;SDS011;5987;53.140;8.904;2022-09-01T07:30:16;1.70;;;0.93;;
11854;SDS011;5987;53.140;8.904;2022-09-01T07:33:25;2.33;;;1.07;;
11854;SDS011;5987;53.140;8.904;2022-09-01T07:36:51;0.80;;;0.77;;
11854;SDS011;5987;53.140;8.904;2022-09-01T07:40:20;2.50;;;0.87;;
11854;SDS011;5987;53.140;8.904;2022-09-01T07:43:49;1.57;;;0.70;;
11854;SDS011;5987;53.140;8.904;2022-09-01T07:46:56;1.30;;;0.53;;
11854;SDS011;5987;53.140;8.904;2022-09-01T07:50:20;4.37;;;0.80;;
11854;SDS011;5987;53.140;8.904;2022-09-01T07:53:41;1.00;;;0.73;;
11854;SDS011;5987;53.140;8.904;2022-09-01T07:56:47;3.87;;;1.33;;
11854;SDS011;5987;53.140;8.904;2022-09-01T07:59:50;0.97;;;0.60;;
11854;SDS011;5987;53.140;8.904;2022-09-01T08:02:56;2.50;;;0.50;;
11854;SDS011;5987;53.140;8.904;2022-09-01T08:06:04;0.90;;;0.63;;
11854;SDS011;5987;53.140;8.904;2022-09-01T08:09:11;0.80;;;0.67;;
11854;SDS011;5987;53.140;8.904;2022-09-01T08:12:37;4.17;;;0.90;;
11854;SDS011;5987;53.140;8.904;2022-09-01T08:15:41;2.13;;;0.60;;
11854;SDS011;5987;53.140;8.904;2022-09-01T08:19:06;1.40;;;0.50;;
11854;SDS011;5987;53.140;8.904;2022-09-01T08:22:17;0.67;;;0.67;;
11854;SDS011;5987;53.140;8.904;2022-09-01T08:25:23;2.87;;;0.70;;
11854;SDS011;5987;53.140;8.904;2022-09-01T08:28:29;1.17;;;0.60;;
11854;SDS011;5987;53.140;8.904;2022-09-01T08:31:32;0.67;;;0.60;;
11854;SDS011;5987;53.140;8.904;2022-09-01T08:34:37;1.50;;;0.70;;
11854;SDS011;5987;53.140;8.904;2022-09-01T08:37:41;1.07;;;0.57;;
11854;SDS011;5987;53.140;8.904;2022-09-01T08:40:49;0.33;;;0.33;;
11854;SDS011;5987;53.140;8.904;2022-09-01T08:44:01;0.80;;;0.53;;
11854;SDS011;5987;53.140;8.904;2022-09-01T08:47:16;1.73;;;0.77;;
11854;SDS011;5987;53.140;8.904;2022-09-01T08:50:40;0.67;;;0.50;;
11854;SDS011;5987;53.140;8.904;2022-09-01T08:53:55;2.20;;;0.60;;
11854;SDS011;5987;53.140;8.904;2022-09-01T08:57:08;1.27;;;0.47;;
11854;SDS011;5987;53.140;8.904;2022-09-01T09:00:23;1.43;;;0.33;;
11854;SDS011;5987;53.140;8.904;2022-09-01T09:03:31;1.33;;;0.40;;
11854;SDS011;5987;53.140;8.904;2022-09-01T09:06:46;0.70;;;0.40;;
11854;SDS011;5987;53.140;8.904;2022-09-01T09:10:06;0.50;;;0.30;;
11854;SDS011;5987;53.140;8.904;2022-09-01T09:13:20;1.50;;;0.50;;
11854;SDS011;5987;53.140;8.904;2022-09-01T09:16:39;0.87;;;0.47;;
11854;SDS011;5987;53.140;8.904;2022-09-01T09:19:54;0.70;;;0.30;;
11854;SDS011;5987;53.140;8.904;2022-09-01T09:23:10;1.20;;;0.40;;
11854;SDS011;5987;53.140;8.904;2022-09-01T09:26:29;0.87;;;0.40;;
11854;SDS011;5987;53.140;8.904;2022-09-01T09:29:48;0.50;;;0.40;;
11854;SDS011;5987;53.140;8.904;2022-09-01T09:32:57;0.30;;;0.30;;
11854;SDS011;5987;53.140;8.904;2022-09-01T09:36:28;1.03;;;0.53;;
11854;SDS011;5987;53.140;8.904;2022-09-01T09:39:36;1.40;;;0.40;;
11854;SDS011;5987;53.140;8.904;2022-09-01T09:42:41;1.27;;;0.30;;
11854;SDS011;5987;53.140;8.904;2022-09-01T09:49:38;1.30;;;0.70;;
11854;SDS011;5987;53.140;8.904;2022-09-01T09:52:49;0.30;;;0.30;;
11854;SDS011;5987;53.140;8.904;2022-09-01T09:56:15;0.50;;;0.47;;
11854;SDS011;5987;53.140;8.904;2022-09-01T09:59:25;1.50;;;0.70;;
11854;SDS011;5987;53.140;8.904;2022-09-01T10:02:54;0.50;;;0.30;;
11854;SDS011;5987;53.140;8.904;2022-09-01T10:06:12;2.03;;;0.50;;
11854;SDS011;5987;53.140;8.904;2022-09-01T10:09:34;0.87;;;0.40;;
11854;SDS011;5987;53.140;8.904;2022-09-01T10:12:39;1.63;;;0.40;;
11854;SDS011;5987;53.140;8.904;2022-09-01T10:15:45;1.70;;;0.70;;
11854;SDS011;5987;53.140;8.904;2022-09-01T10:18:55;1.03;;;0.53;;
11854;SDS011;5987;53.140;8.904;2022-09-01T10:22:04;1.13;;;0.30;;
11854;SDS011;5987;53.140;8.904;2022-09-01T10:25:12;0.83;;;0.50;;
11854;SDS011;5987;53.140;8.904;2022-09-01T10:28:21;0.90;;;0.60;;
11854;SDS011;5987;53.140;8.904;2022-09-01T10:31:26;2.00;;;0.50;;
11854;SDS011;5987;53.140;8.904;2022-09-01T10:34:34;0.73;;;0.40;;
11854;SDS011;5987;53.140;8.904;2022-09-01T10:37:44;2.00;;;0.40;;
11854;SDS011;5987;53.140;8.904;2022-09-01T10:40:50;0.40;;;0.30;;
11854;SDS011;5987;53.140;8.904;2022-09-01T10:44:08;1.70;;;0.80;;
11854;SDS011;5987;53.140;8.904;2022-09-01T10:47:23;1.20;;;0.50;;
11854;SDS011;5987;53.140;8.904;2022-09-01T10:50:31;0.83;;;0.30;;
11854;SDS011;5987;53.140;8.904;2022-09-01T10:53:38;1.43;;;0.30;;
11854;SDS011;5987;53.140;8.904;2022-09-01T10:56:45;0.50;;;0.40;;
11854;SDS011;5987;53.140;8.904;2022-09-01T10:59:54;1.10;;;0.40;;
11854;SDS011;5987;53.140;8.904;2022-09-01T11:04:03;0.93;;;0.40;;
11854;SDS011;5987;53.140;8.904;2022-09-01T11:07:27;0.40;;;0.40;;
11854;SDS011;5987;53.140;8.904;2022-09-01T11:10:55;0.40;;;0.40;;
11854;SDS011;5987;53.140;8.904;2022-09-01T11:14:15;1.33;;;0.40;;
11854;SDS011;5987;53.140;8.904;2022-09-01T11:17:22;0.40;;;0.30;;
11854;SDS011;5987;53.140;8.904;2022-09-01T11:20:31;0.73;;;0.30;;
11854;SDS011;5987;53.140;8.904;2022-09-01T11:23:37;0.77;;;0.30;;
11854;SDS011;5987;53.140;8.904;2022-09-01T11:26:47;0.83;;;0.47;;
11854;SDS011;5987;53.140;8.904;2022-09-01T11:29:52;0.50;;;0.30;;
11854;SDS011;5987;53.140;8.904;2022-09-01T11:33:01;1.80;;;0.40;;
11854;SDS011;5987;53.140;8.904;2022-09-01T11:36:25;0.50;;;0.40;;
11854;SDS011;5987;53.140;8.904;2022-09-01T11:39:38;0.90;;;0.40;;
11854;SDS011;5987;53.140;8.904;2022-09-01T11:42:45;0.30;;;0.30;;
11854;SDS011;5987;53.140;8.904;2022-09-01T11:45:58;0.80;;;0.40;;
11854;SDS011;5987;53.140;8.904;2022-09-01T11:49:24;0.53;;;0.30;;
11854;SDS011;5987;53.140;8.904;2022-09-01T11:52:34;1.27;;;0.50;;
11854;SDS011;5987;53.140;8.904;2022-09-01T11:55:43;2.50;;;0.47;;
11854;SDS011;5987;53.140;8.904;2022-09-01T11:58:51;0.50;;;0.50;;
11854;SDS011;5987;53.140;8.904;2022-09-01T12:01:56;0.30;;;0.30;;
11854;SDS011;5987;53.140;8.904;2022-09-01T12:05:01;1.40;;;0.17;;
11854;SDS011;5987;53.140;8.904;2022-09-01T12:08:25;0.23;;;0.23;;
11854;SDS011;5987;53.140;8.904;2022-09-01T12:11:33;1.37;;;0.60;;
11854;SDS011;5987;53.140;8.904;2022-09-01T12:14:39;0.20;;;0.20;;
11854;SDS011;5987;53.140;8.904;2022-09-01T12:18:11;0.53;;;0.40;;
11854;SDS011;5987;53.140;8.904;2022-09-01T12:21:22;0.53;;;0.40;;
11854;SDS011;5987;53.140;8.904;2022-09-01T12:24:30;1.20;;;0.40;;
11854;SDS011;5987;53.140;8.904;2022-09-01T12:27:37;1.47;;;0.40;;
11854;SDS011;5987;53.140;8.904;2022-09-01T12:30:44;0.60;;;0.60;;
11854;SDS011;5987;53.140;8.904;2022-09-01T12:33:47;1.10;;;0.33;;
11854;SDS011;5987;53.140;8.904;2022-09-01T12:37:03;0.80;;;0.40;;
11854;SDS011;5987;53.140;8.904;2022-09-01T12:40:22;0.70;;;0.50;;
11854;SDS011;5987;53.140;8.904;2022-09-01T12:43:33;1.20;;;0.30;;
11854;SDS011;5987;53.140;8.904;2022-09-01T12:46:42;1.70;;;0.40;;
11854;SDS011;5987;53.140;8.904;2022-09-01T12:49:47;2.00;;;0.50;;
11854;SDS011;5987;53.140;8.904;2022-09-01T12:52:53;0.33;;;0.30;;
11854;SDS011;5987;53.140;8.904;2022-09-01T12:56:15;0.63;;;0.50;;
11854;SDS011;5987;53.140;8.904;2022-09-01T12:59:31;1.97;;;0.40;;
11854;SDS011;5987;53.140;8.904;2022-09-01T13:02:40;0.57;;;0.33;;
11854;SDS011;5987;53.140;8.904;2022-09-01T13:05:48;2.17;;;0.50;;
11854;SDS011;5987;53.140;8.904;2022-09-01T13:08:54;1.63;;;0.43;;
11854;SDS011;5987;53.140;8.904;2022-09-01T13:12:08;0.80;;;0.60;;
11854;SDS011;5987;53.140;8.904;2022-09-01T13:15:37;1.10;;;0.50;;
11854;SDS011;5987;53.140;8.904;2022-09-01T13:18:45;0.53;;;0.43;;
11854;SDS011;5987;53.140;8.904;2022-09-01T13:22:09;0.80;;;0.57;;
11854;SDS011;5987;53.140;8.904;2022-09-01T13:25:14;1.70;;;0.60;;
11854;SDS011;5987;53.140;8.904;2022-09-01T13:28:21;0.30;;;0.30;;
11854;SDS011;5987;53.140;8.904;2022-09-01T13:31:30;2.10;;;0.40;;
11854;SDS011;5987;53.140;8.904;2022-09-01T13:34:39;0.97;;;0.40;;
11854;SDS011;5987;53.140;8.904;2022-09-01T13:37:44;1.83;;;0.50;;
11854;SDS011;5987;53.140;8.904;2022-09-01T13:40:48;0.37;;;0.30;;
11854;SDS011;5987;53.140;8.904;2022-09-01T13:43:53;0.80;;;0.50;;
11854;SDS011;5987;53.140;8.904;2022-09-01T13:46:57;1.47;;;0.40;;
11854;SDS011;5987;53.140;8.904;2022-09-01T13:50:22;0.40;;;0.20;;
11854;SDS011;5987;53.140;8.904;2022-09-01T13:53:46;4.83;;;0.40;;
11854;SDS011;5987;53.140;8.904;2022-09-01T13:56:52;0.70;;;0.70;;
11854;SDS011;5987;53.140;8.904;2022-09-01T13:59:56;0.97;;;0.53;;
11854;SDS011;5987;53.140;8.904;2022-09-01T14:03:00;0.30;;;0.30;;
11854;SDS011;5987;53.140;8.904;2022-09-01T14:06:10;1.50;;;0.43;;
11854;SDS011;5987;53.140;8.904;2022-09-01T14:09:14;0.63;;;0.30;;
11854;SDS011;5987;53.140;8.904;2022-09-01T14:12:18;0.83;;;0.60;;
11854;SDS011;5987;53.140;8.904;2022-09-01T14:15:22;1.77;;;0.50;;
11854;SDS011;5987;53.140;8.904;2022-09-01T14:18:28;0.30;;;0.30;;
11854;SDS011;5987;53.140;8.904;2022-09-01T14:21:38;0.70;;;0.30;;
11854;SDS011;5987;53.140;8.904;2022-09-01T14:24:42;0.90;;;0.40;;
11854;SDS011;5987;53.140;8.904;2022-09-01T14:27:46;0.40;;;0.30;;
11854;SDS011;5987;53.140;8.904;2022-09-01T14:30:52;0.63;;;0.33;;
11854;SDS011;5987;53.140;8.904;2022-09-01T14:33:54;0.50;;;0.40;;
11854;SDS011;5987;53.140;8.904;2022-09-01T14:36:59;0.93;;;0.60;;
11854;SDS011;5987;53.140;8.904;2022-09-01T14:40:05;0.50;;;0.50;;
11854;SDS011;5987;53.140;8.904;2022-09-01T14:43:17;0.50;;;0.50;;
11854;SDS011;5987;53.140;8.904;2022-09-01T14:46:22;0.80;;;0.60;;
11854;SDS011;5987;53.140;8.904;2022-09-01T14:49:26;0.90;;;0.43;;
11854;SDS011;5987;53.140;8.904;2022-09-01T14:52:35;1.23;;;0.30;;
11854;SDS011;5987;53.140;8.904;2022-09-01T14:55:38;1.07;;;0.40;;
11854;SDS011;5987;53.140;8.904;2022-09-01T14:58:44;0.60;;;0.50;;
11854;SDS011;5987;53.140;8.904;2022-09-01T15:01:49;0.57;;;0.33;;
11854;SDS011;5987;53.140;8.904;2022-09-01T15:04:53;1.67;;;0.30;;
11854;SDS011;5987;53.140;8.904;2022-09-01T15:07:59;1.03;;;0.60;;
11854;SDS011;5987;53.140;8.904;2022-09-01T15:11:06;0.90;;;0.67;;
11854;SDS011;5987;53.140;8.904;2022-09-01T15:14:12;0.83;;;0.40;;
11854;SDS011;5987;53.140;8.904;2022-09-01T15:17:16;1.03;;;0.50;;
11854;SDS011;5987;53.140;8.904;2022-09-01T15:20:20;1.20;;;0.30;;
11854;SDS011;5987;53.140;8.904;2022-09-01T15:23:43;1.07;;;0.40;;
11854;SDS011;5987;53.140;8.904;2022-09-01T15:26:48;3.33;;;0.60;;
11854;SDS011;5987;53.140;8.904;2022-09-01T15:29:52;0.40;;;0.40;;
11854;SDS011;5987;53.140;8.904;2022-09-01T15:32:56;1.27;;;0.80;;
11854;SDS011;5987;53.140;8.904;2022-09-01T15:36:00;1.60;;;0.50;;
11854;SDS011;5987;53.140;8.904;2022-09-01T15:39:05;1.67;;;0.40;;
11854;SDS011;5987;53.140;8.904;2022-09-01T15:42:11;0.53;;;0.40;;
11854;SDS011;5987;53.140;8.904;2022-09-01T15:45:21;0.37;;;0.33;;
11854;SDS011;5987;53.140;8.904;2022-09-01T15:48:26;1.70;;;0.50;;
11854;SDS011;5987;53.140;8.904;2022-09-01T15:51:31;1.03;;;0.57;;
11854;SDS011;5987;53.140;8.904;2022-09-01T15:54:38;1.73;;;0.60;;
11854;SDS011;5987;53.140;8.904;2022-09-01T15:57:42;0.30;;;0.30;;
11854;SDS011;5987;53.140;8.904;2022-09-01T16:00:46;0.83;;;0.40;;
11854;SDS011;5987;53.140;8.904;2022-09-01T16:03:52;1.53;;;0.50;;
11854;SDS011;5987;53.140;8.904;2022-09-01T16:06:57;0.67;;;0.63;;
11854;SDS011;5987;53.140;8.904;2022-09-01T16:10:02;1.70;;;0.60;;
11854;SDS011;5987;53.140;8.904;2022-09-01T16:13:12;1.80;;;0.50;;
11854;SDS011;5987;53.140;8.904;2022-09-01T16:16:20;1.53;;;0.70;;
11854;SDS011;5987;53.140;8.904;2022-09-01T16:19:46;1.13;;;0.57;;
11854;SDS011;5987;53.140;8.904;2022-09-01T16:22:56;1.87;;;0.77;;
11854;SDS011;5987;53.140;8.904;2022-09-01T16:26:13;1.03;;;0.70;;
11854;SDS011;5987;53.140;8.904;2022-09-01T16:29:19;0.97;;;0.73;;
11854;SDS011;5987;53.140;8.904;2022-09-01T16:32:34;0.43;;;0.33;;
11854;SDS011;5987;53.140;8.904;2022-09-01T16:35:41;1.40;;;0.80;;
11854;SDS011;5987;53.140;8.904;2022-09-01T16:38:57;0.63;;;0.43;;
11854;SDS011;5987;53.140;8.904;2022-09-01T16:42:18;0.87;;;0.50;;
11854;SDS011;5987;53.140;8.904;2022-09-01T16:45:36;1.60;;;0.70;;
11854;SDS011;5987;53.140;8.904;2022-09-01T16:48:58;1.17;;;0.80;;
11854;SDS011;5987;53.140;8.904;2022-09-01T16:52:19;0.50;;;0.50;;
11854;SDS011;5987;53.140;8.904;2022-09-01T16:55:32;0.70;;;0.70;;
11854;SDS011;5987;53.140;8.904;2022-09-01T16:58:55;1.13;;;0.60;;
11854;SDS011;5987;53.140;8.904;2022-09-01T17:02:34;2.10;;;0.50;;
11854;SDS011;5987;53.140;8.904;2022-09-01T17:05:53;0.70;;;0.70;;
11854;SDS011;5987;53.140;8.904;2022-09-01T17:09:06;2.33;;;0.80;;
11854;SDS011;5987;53.140;8.904;2022-09-01T17:12:18;2.07;;;1.00;;
11854;SDS011;5987;53.140;8.904;2022-09-01T17:15:33;1.97;;;1.10;;
11854;SDS011;5987;53.140;8.904;2022-09-01T17:18:42;1.23;;;0.70;;
11854;SDS011;5987;53.140;8.904;2022-09-01T17:21:53;1.20;;;0.80;;
11854;SDS011;5987;53.140;8.904;2022-09-01T17:25:07;2.13;;;0.80;;
11854;SDS011;5987;53.140;8.904;2022-09-01T17:28:21;2.17;;;0.70;;
11854;SDS011;5987;53.140;8.904;2022-09-01T17:31:38;1.30;;;0.73;;
11854;SDS011;5987;53.140;8.904;2022-09-01T17:34:57;1.10;;;0.63;;
11854;SDS011;5987;53.140;8.904;2022-09-01T17:38:18;0.77;;;0.50;;
11854;SDS011;5987;53.140;8.904;2022-09-01T17:41:37;2.10;;;0.90;;
11854;SDS011;5987;53.140;8.904;2022-09-01T17:44:49;1.30;;;0.97;;
11854;SDS011;5987;53.140;8.904;2022-09-01T17:48:01;1.80;;;1.03;;
11854;SDS011;5987;53.140;8.904;2022-09-01T17:51:18;0.80;;;0.80;;
11854;SDS011;5987;53.140;8.904;2022-09-01T17:54:35;1.00;;;0.70;;
11854;SDS011;5987;53.140;8.904;2022-09-01T17:57:49;1.60;;;0.60;;
11854;SDS011;5987;53.140;8.904;2022-09-01T18:01:00;1.43;;;0.93;;
11854;SDS011;5987;53.140;8.904;2022-09-01T18:04:23;3.83;;;1.20;;
11854;SDS011;5987;53.140;8.904;2022-09-01T18:07:55;1.57;;;1.00;;
11854;SDS011;5987;53.140;8.904;2022-09-01T18:11:14;3.10;;;1.10;;
11854;SDS011;5987;53.140;8.904;2022-09-01T18:14:26;0.80;;;0.60;;
11854;SDS011;5987;53.140;8.904;2022-09-01T18:17:41;1.57;;;1.00;;
11854;SDS011;5987;53.140;8.904;2022-09-01T18:20:53;1.60;;;0.77;;
11854;SDS011;5987;53.140;8.904;2022-09-01T18:24:06;1.60;;;0.77;;
11854;SDS011;5987;53.140;8.904;2022-09-01T18:27:16;2.63;;;1.20;;
11854;SDS011;5987;53.140;8.904;2022-09-01T18:30:24;2.97;;;1.00;;
11854;SDS011;5987;53.140;8.904;2022-09-01T18:33:52;2.87;;;1.13;;
11854;SDS011;5987;53.140;8.904;2022-09-01T18:37:12;4.00;;;1.10;;
11854;SDS011;5987;53.140;8.904;2022-09-01T18:40:25;4.33;;;1.47;;
11854;SDS011;5987;53.140;8.904;2022-09-01T18:43:35;3.03;;;1.40;;
11854;SDS011;5987;53.140;8.904;2022-09-01T18:46:46;3.30;;;1.67;;
11854;SDS011;5987;53.140;8.904;2022-09-01T18:50:06;1.60;;;1.00;;
11854;SDS011;5987;53.140;8.904;2022-09-01T18:53:28;4.83;;;0.87;;
11854;SDS011;5987;53.140;8.904;2022-09-01T18:56:46;0.93;;;0.63;;
11854;SDS011;5987;53.140;8.904;2022-09-01T19:00:03;2.67;;;0.57;;
11854;SDS011;5987;53.140;8.904;2022-09-01T19:03:21;1.07;;;0.47;;
11854;SDS011;5987;53.140;8.904;2022-09-01T19:06:35;0.80;;;0.50;;
11854;SDS011;5987;53.140;8.904;2022-09-01T19:10:02;1.40;;;0.80;;
11854;SDS011;5987;53.140;8.904;2022-09-01T19:13:23;1.53;;;0.60;;
11854;SDS011;5987;53.140;8.904;2022-09-01T19:16:52;0.67;;;0.50;;
11854;SDS011;5987;53.140;8.904;2022-09-01T19:20:16;2.23;;;0.60;;
11854;SDS011;5987;53.140;8.904;2022-09-01T19:23:26;0.80;;;0.60;;
11854;SDS011;5987;53.140;8.904;2022-09-01T19:26:45;1.30;;;0.70;;